Time;durP1;ratioP1;P1;durP2;ratioP2;P2;SDS_P1;SDS_P2;PMS_P1;PMS_P2;Temp;Humidity;BMP_temperature;BMP_pressure;BME280_temperature;BME280_humidity;BME280_pressure;Samples;Min_cycle;Max_cycle;Signal;HPM_P1;HPM_P2
2022/03/30 00:00:02;;;;;;;;;8.50;8.50;;;;;;;;5097411;27;46152;-69
2022/03/30 00:02:27;;;;;;;;;11.00;8.50;;;;;;;;5094201;27;45371;-69
2022/03/30 00:04:52;;;;;;;;;11.50;11.50;;;;;;;;5090003;27;45318;-68
2022/03/30 00:07:18;;;;;;;;;9.00;9.00;;;;;;;;5093612;27;45318;-70
2022/03/30 00:09:43;;;;;;;;;8.00;8.00;;;;;;;;5093240;27;46041;-69
2022/03/30 00:12:08;;;;;;;;;7.75;7.75;;;;;;;;5097317;27;45691;-69
2022/03/30 00:14:34;;;;;;;;;9.25;9.00;;;;;;;;5096145;27;45290;-69
2022/03/30 00:16:59;;;;;;;;;11.75;10.75;;;;;;;;5094442;27;45282;-69
2022/03/30 00:19:25;;;;;;;;;10.25;8.00;;;;;;;;5096403;27;45325;-69
2022/03/30 00:21:50;;;;;;;;;7.50;7.25;;;;;;;;5093441;27;45517;-69
2022/03/30 00:24:15;;;;;;;;;9.75;9.75;;;;;;;;5094784;27;45473;-69
2022/03/30 00:26:40;;;;;;;;;9.25;8.00;;;;;;;;5096911;27;45374;-69
2022/03/30 00:29:06;;;;;;;;;11.00;8.75;;;;;;;;5091923;27;47297;-69
2022/03/30 00:31:32;;;;;;;;;8.25;8.25;;;;;;;;5095333;27;45525;-69
2022/03/30 00:33:57;;;;;;;;;10.00;9.00;;;;;;;;5096032;27;45351;-69
2022/03/30 00:36:22;;;;;;;;;11.00;10.00;;;;;;;;5094752;27;45314;-70
2022/03/30 00:38:47;;;;;;;;;11.50;10.75;;;;;;;;5098075;27;45664;-69
2022/03/30 00:41:13;;;;;;;;;0.00;0.00;;;;;;;;5092988;27;45538;-69
2022/03/30 00:43:38;;;;;;;;;8.75;8.75;;;;;;;;5096752;27;46144;-69
2022/03/30 00:46:03;;;;;;;;;8.25;7.00;;;;;;;;5094245;27;45355;-69
2022/03/30 00:48:28;;;;;;;;;11.00;9.25;;;;;;;;5096111;27;45606;-69
2022/03/30 00:50:54;;;;;;;;;9.00;9.00;;;;;;;;5097340;27;45367;-69
2022/03/30 00:53:19;;;;;;;;;10.00;8.25;;;;;;;;5092172;27;45346;-69
2022/03/30 00:55:45;;;;;;;;;9.00;7.00;;;;;;;;5092845;27;45483;-69
2022/03/30 00:58:11;;;;;;;;;8.75;8.75;;;;;;;;5089480;27;45447;-69
2022/03/30 01:00:37;;;;;;;;;7.00;7.00;;;;;;;;5093501;27;45360;-69
2022/03/30 01:03:03;;;;;;;;;9.00;9.00;;;;;;;;5096152;27;45273;-69
2022/03/30 01:05:28;;;;;;;;;9.25;7.75;;;;;;;;5096042;27;45542;-69
2022/03/30 01:07:56;;;;;;;;;10.00;8.00;;;;;;;;5095854;27;45325;-69
2022/03/30 01:10:22;;;;;;;;;10.50;10.00;;;;;;;;5093664;27;45397;-69
2022/03/30 01:12:48;;;;;;;;;9.00;8.00;;;;;;;;5095479;27;45290;-69
2022/03/30 01:15:14;;;;;;;;;11.00;11.00;;;;;;;;5095361;27;45323;-69
2022/03/30 01:17:39;;;;;;;;;9.50;7.25;;;;;;;;5095760;27;45389;-69
2022/03/30 01:20:05;;;;;;;;;9.00;8.00;;;;;;;;5095002;27;45528;-70
2022/03/30 01:22:30;;;;;;;;;8.00;7.00;;;;;;;;5093622;27;45389;-69
2022/03/30 01:24:55;;;;;;;;;10.75;8.25;;;;;;;;5094256;27;46002;-70
2022/03/30 01:27:21;;;;;;;;;7.50;6.50;;;;;;;;5093348;27;46154;-69
2022/03/30 01:32:30;;;;;;;;;8.75;8.75;;;;;;;;5096695;27;45359;-69
2022/03/30 01:34:57;;;;;;;;;9.50;9.25;;;;;;;;5094824;27;45489;-70
2022/03/30 01:37:23;;;;;;;;;9.50;8.00;;;;;;;;5092468;27;45643;-69
2022/03/30 01:39:48;;;;;;;;;10.00;8.50;;;;;;;;5094521;27;45326;-69
2022/03/30 01:42:14;;;;;;;;;10.25;7.75;;;;;;;;5094419;27;45354;-69
2022/03/30 01:44:39;;;;;;;;;10.00;10.00;;;;;;;;5095254;27;45358;-69
2022/03/30 01:47:04;;;;;;;;;11.00;8.75;;;;;;;;5082835;27;45965;-69
2022/03/30 01:49:30;;;;;;;;;7.50;7.00;;;;;;;;5088955;27;45461;-69
2022/03/30 01:51:56;;;;;;;;;7.00;7.00;;;;;;;;5092680;27;45313;-69
2022/03/30 01:54:22;;;;;;;;;10.25;10.25;;;;;;;;5093696;27;45592;-68
2022/03/30 01:56:49;;;;;;;;;12.75;8.75;;;;;;;;5096134;27;47306;-69
2022/03/30 01:59:15;;;;;;;;;9.00;8.25;;;;;;;;5093112;27;45487;-69
2022/03/30 02:01:41;;;;;;;;;9.00;7.25;;;;;;;;5092388;27;45355;-70
2022/03/30 02:04:06;;;;;;;;;8.25;7.75;;;;;;;;5088685;27;45499;-69
2022/03/30 02:06:32;;;;;;;;;9.25;8.25;;;;;;;;5094146;27;46394;-69
2022/03/30 02:08:57;;;;;;;;;9.50;8.00;;;;;;;;5095098;27;45294;-69
2022/03/30 02:11:22;;;;;;;;;12.50;8.75;;;;;;;;5095036;27;45418;-69
2022/03/30 02:13:47;;;;;;;;;13.00;9.50;;;;;;;;5092194;27;45409;-69
2022/03/30 02:16:13;;;;;;;;;7.50;7.25;;;;;;;;5094041;27;46504;-69
2022/03/30 02:18:38;;;;;;;;;6.75;6.50;;;;;;;;5086810;27;45349;-69
2022/03/30 02:21:04;;;;;;;;;5.00;5.00;;;;;;;;5094569;27;45380;-69
2022/03/30 02:23:29;;;;;;;;;8.75;6.75;;;;;;;;5096069;27;45356;-69
2022/03/30 02:25:54;;;;;;;;;8.75;7.50;;;;;;;;5088829;27;46489;-69
2022/03/30 02:28:19;;;;;;;;;8.75;8.75;;;;;;;;5092030;27;45313;-69
2022/03/30 02:30:45;;;;;;;;;11.75;9.50;;;;;;;;5095747;27;45453;-69
2022/03/30 02:33:10;;;;;;;;;6.00;6.00;;;;;;;;5082669;27;45310;-69
2022/03/30 02:35:35;;;;;;;;;8.25;8.25;;;;;;;;5084867;27;45538;-69
2022/03/30 02:38:00;;;;;;;;;9.75;8.75;;;;;;;;5092628;27;45443;-69
2022/03/30 02:40:25;;;;;;;;;7.75;7.75;;;;;;;;5092056;27;45358;-69
2022/03/30 02:42:51;;;;;;;;;9.75;9.75;;;;;;;;5092675;27;45451;-69
2022/03/30 02:45:16;;;;;;;;;10.00;10.00;;;;;;;;5093214;27;46548;-69
2022/03/30 02:50:25;;;;;;;;;11.75;10.00;;;;;;;;5093272;27;45362;-69
2022/03/30 02:52:50;;;;;;;;;10.50;8.75;;;;;;;;5093095;27;45463;-69
2022/03/30 02:55:16;;;;;;;;;7.25;7.00;;;;;;;;5093399;27;46203;-69
2022/03/30 02:57:41;;;;;;;;;11.25;9.75;;;;;;;;5092111;27;45277;-69
2022/03/30 03:00:07;;;;;;;;;8.50;7.50;;;;;;;;5094246;27;45264;-69
2022/03/30 03:02:33;;;;;;;;;11.75;10.00;;;;;;;;5095382;27;45529;-69
2022/03/30 03:04:58;;;;;;;;;7.75;7.50;;;;;;;;5072846;27;46294;-69
2022/03/30 03:07:23;;;;;;;;;8.75;8.00;;;;;;;;5093431;27;45513;-69
2022/03/30 03:09:48;;;;;;;;;10.00;8.50;;;;;;;;5093403;27;45388;-68
2022/03/30 03:12:14;;;;;;;;;10.00;10.00;;;;;;;;5075492;27;45301;-69
2022/03/30 03:14:39;;;;;;;;;8.75;7.50;;;;;;;;5109110;27;45605;-69
2022/03/30 03:17:04;;;;;;;;;14.75;11.00;;;;;;;;5098868;27;45597;-69
2022/03/30 03:19:29;;;;;;;;;10.25;8.75;;;;;;;;5101511;27;45523;-69
2022/03/30 03:21:55;;;;;;;;;9.50;9.25;;;;;;;;5099763;27;45545;-69
2022/03/30 03:24:20;;;;;;;;;8.50;8.50;;;;;;;;5097358;27;45379;-69
2022/03/30 03:26:45;;;;;;;;;10.75;7.75;;;;;;;;5104026;27;45354;-69
2022/03/30 03:29:10;;;;;;;;;10.25;8.75;;;;;;;;5093340;27;45350;-69
2022/03/30 03:31:36;;;;;;;;;10.25;7.75;;;;;;;;5090564;27;45540;-69
2022/03/30 03:34:01;;;;;;;;;9.75;8.25;;;;;;;;5094648;27;47131;-70
2022/03/30 03:36:26;;;;;;;;;8.25;8.25;;;;;;;;5096868;27;45556;-69
2022/03/30 03:38:52;;;;;;;;;9.75;8.25;;;;;;;;5098689;27;45659;-69
2022/03/30 03:41:18;;;;;;;;;11.00;10.00;;;;;;;;5094456;27;45347;-70
2022/03/30 03:43:44;;;;;;;;;10.00;8.50;;;;;;;;5095888;27;46078;-69
2022/03/30 03:46:09;;;;;;;;;9.75;8.25;;;;;;;;5096413;27;45585;-69
2022/03/30 03:48:34;;;;;;;;;10.00;9.25;;;;;;;;5097703;27;45267;-69
2022/03/30 03:50:59;;;;;;;;;8.25;6.75;;;;;;;;5097720;27;45449;-70
2022/03/30 03:53:25;;;;;;;;;9.25;7.00;;;;;;;;5096891;27;45639;-69
2022/03/30 03:55:50;;;;;;;;;9.00;9.00;;;;;;;;5096433;27;45499;-69
2022/03/30 03:58:15;;;;;;;;;10.50;8.75;;;;;;;;5096356;27;45432;-69
2022/03/30 04:00:40;;;;;;;;;11.00;8.00;;;;;;;;5094700;27;45422;-69
2022/03/30 04:03:06;;;;;;;;;9.00;8.50;;;;;;;;5096794;27;46701;-69
2022/03/30 04:05:32;;;;;;;;;10.50;8.25;;;;;;;;5095686;27;45418;-69
2022/03/30 04:07:57;;;;;;;;;12.00;9.75;;;;;;;;5105022;27;45572;-69
2022/03/30 04:10:23;;;;;;;;;10.50;9.00;;;;;;;;5107634;27;45418;-69
2022/03/30 04:12:48;;;;;;;;;11.00;7.00;;;;;;;;5112414;27;46134;-69
2022/03/30 04:15:13;;;;;;;;;9.25;7.00;;;;;;;;5097296;27;45417;-69
2022/03/30 04:17:46;;;;;;;;;9.25;7.50;;;;;;;;5097285;27;45342;-69
2022/03/30 04:20:12;;;;;;;;;12.75;9.25;;;;;;;;5095529;27;45335;-69
2022/03/30 04:22:37;;;;;;;;;6.75;6.75;;;;;;;;5095806;27;46689;-69
2022/03/30 04:25:04;;;;;;;;;9.50;7.50;;;;;;;;5095995;27;45430;-69
2022/03/30 04:27:29;;;;;;;;;11.75;9.75;;;;;;;;5096263;27;45415;-69
2022/03/30 04:29:54;;;;;;;;;7.75;7.75;;;;;;;;5096485;27;45450;-69
2022/03/30 04:32:20;;;;;;;;;9.00;9.00;;;;;;;;5096144;27;45617;-69
2022/03/30 04:34:45;;;;;;;;;8.50;8.50;;;;;;;;5096522;27;45936;-69
2022/03/30 04:37:10;;;;;;;;;9.00;7.00;;;;;;;;5093880;27;45701;-69
2022/03/30 04:39:35;;;;;;;;;13.00;9.25;;;;;;;;5093111;27;45497;-69
2022/03/30 04:42:01;;;;;;;;;9.25;8.50;;;;;;;;5097019;27;45592;-69
2022/03/30 04:44:26;;;;;;;;;10.00;10.00;;;;;;;;5096137;27;45381;-69
2022/03/30 04:46:51;;;;;;;;;10.50;9.00;;;;;;;;5095292;27;45557;-69
2022/03/30 04:49:17;;;;;;;;;9.50;8.00;;;;;;;;5096012;27;45335;-69
2022/03/30 04:51:42;;;;;;;;;8.00;8.00;;;;;;;;5092409;27;45552;-69
2022/03/30 04:54:08;;;;;;;;;12.00;10.25;;;;;;;;5093843;27;45623;-69
2022/03/30 04:56:33;;;;;;;;;8.25;8.25;;;;;;;;5097567;27;45311;-69
2022/03/30 04:58:58;;;;;;;;;7.50;7.25;;;;;;;;5090727;27;45518;-69
2022/03/30 05:01:23;;;;;;;;;10.50;10.00;;;;;;;;5095017;27;45352;-69
2022/03/30 05:03:48;;;;;;;;;10.25;9.50;;;;;;;;5095520;27;45358;-69
2022/03/30 05:06:14;;;;;;;;;10.25;10.25;;;;;;;;5094497;27;45438;-69
2022/03/30 05:08:39;;;;;;;;;7.75;7.75;;;;;;;;5096413;27;45273;-69
2022/03/30 05:11:04;;;;;;;;;12.25;10.25;;;;;;;;5093702;27;45497;-69
2022/03/30 05:13:29;;;;;;;;;8.75;8.75;;;;;;;;5099455;27;45290;-69
2022/03/30 05:15:55;;;;;;;;;8.25;8.25;;;;;;;;5089798;27;45357;-69
2022/03/30 05:18:20;;;;;;;;;8.00;7.25;;;;;;;;5095088;27;45569;-69
2022/03/30 05:20:46;;;;;;;;;7.00;7.00;;;;;;;;5097097;27;45398;-70
2022/03/30 05:23:11;;;;;;;;;9.00;9.00;;;;;;;;5078042;27;45504;-69
2022/03/30 05:25:37;;;;;;;;;12.00;9.00;;;;;;;;5094910;27;45441;-69
2022/03/30 05:28:02;;;;;;;;;12.25;8.50;;;;;;;;5094051;27;45691;-69
2022/03/30 05:30:28;;;;;;;;;8.75;8.75;;;;;;;;5095048;27;45873;-69
2022/03/30 05:32:53;;;;;;;;;7.25;7.25;;;;;;;;5097224;27;45428;-69
2022/03/30 05:35:18;;;;;;;;;9.00;9.00;;;;;;;;5094966;27;45421;-69
2022/03/30 05:37:47;;;;;;;;;12.00;8.75;;;;;;;;5093124;27;45478;-69
2022/03/30 05:40:13;;;;;;;;;6.75;6.50;;;;;;;;5093149;27;47581;-69
2022/03/30 05:42:38;;;;;;;;;9.00;9.00;;;;;;;;5091992;27;45388;-69
2022/03/30 05:45:04;;;;;;;;;11.50;9.75;;;;;;;;5077412;27;45331;-70
2022/03/30 05:47:30;;;;;;;;;8.50;7.50;;;;;;;;5094401;27;45358;-69
2022/03/30 05:49:55;;;;;;;;;9.75;9.00;;;;;;;;5092637;27;45332;-69
2022/03/30 05:52:20;;;;;;;;;9.00;8.75;;;;;;;;5090208;27;45484;-69
2022/03/30 05:54:45;;;;;;;;;10.25;8.50;;;;;;;;5094476;27;45421;-69
2022/03/30 05:57:11;;;;;;;;;9.75;9.25;;;;;;;;5094491;27;45480;-69
2022/03/30 05:59:38;;;;;;;;;8.25;8.25;;;;;;;;5096262;27;46503;-70
2022/03/30 06:02:04;;;;;;;;;7.75;7.75;;;;;;;;5094129;27;45524;-69
2022/03/30 06:04:29;;;;;;;;;10.00;7.25;;;;;;;;5094118;27;45476;-69
2022/03/30 06:06:55;;;;;;;;;8.50;8.50;;;;;;;;5092271;27;50886;-69
2022/03/30 06:09:21;;;;;;;;;7.50;7.25;;;;;;;;5094000;27;46361;-69
2022/03/30 06:11:46;;;;;;;;;8.50;7.00;;;;;;;;5096279;27;45588;-69
2022/03/30 06:14:13;;;;;;;;;8.00;8.00;;;;;;;;5105124;27;45592;-69
2022/03/30 06:16:39;;;;;;;;;9.25;9.25;;;;;;;;5096085;27;45610;-69
2022/03/30 06:19:05;;;;;;;;;7.50;7.00;;;;;;;;5094063;27;45616;-73
2022/03/30 06:21:30;;;;;;;;;8.75;8.00;;;;;;;;5093767;27;45315;-68
2022/03/30 06:23:56;;;;;;;;;13.25;8.75;;;;;;;;5095782;27;45436;-68
2022/03/30 06:26:21;;;;;;;;;8.25;7.75;;;;;;;;5086523;27;45725;-68
2022/03/30 06:28:47;;;;;;;;;8.50;8.50;;;;;;;;5088912;27;46284;-68
2022/03/30 06:31:17;;;;;;;;;12.00;10.25;;;;;;;;5093993;27;45333;-70
2022/03/30 06:33:42;;;;;;;;;10.25;10.25;;;;;;;;5094251;27;45369;-71
2022/03/30 06:36:08;;;;;;;;;6.75;6.75;;;;;;;;5094854;27;45290;-70
2022/03/30 06:38:33;;;;;;;;;9.75;9.75;;;;;;;;5095053;27;45409;-71
2022/03/30 06:40:58;;;;;;;;;9.75;8.75;;;;;;;;5091579;27;45434;-73
2022/03/30 06:43:24;;;;;;;;;8.25;8.25;;;;;;;;5089943;27;45421;-69
2022/03/30 06:45:50;;;;;;;;;10.25;9.00;;;;;;;;5089502;27;45310;-69
2022/03/30 06:48:15;;;;;;;;;11.50;10.25;;;;;;;;5093370;27;45539;-69
2022/03/30 06:50:40;;;;;;;;;10.75;9.00;;;;;;;;5093193;27;45569;-69
2022/03/30 06:53:07;;;;;;;;;10.50;9.50;;;;;;;;5088151;27;45465;-69
2022/03/30 06:55:32;;;;;;;;;9.00;7.75;;;;;;;;5093971;27;45555;-69
2022/03/30 06:57:57;;;;;;;;;9.00;8.00;;;;;;;;5093451;27;46102;-69
2022/03/30 07:00:22;;;;;;;;;7.75;6.25;;;;;;;;5093344;27;45351;-69
2022/03/30 07:02:47;;;;;;;;;9.50;8.25;;;;;;;;5098924;27;45284;-69
2022/03/30 07:05:13;;;;;;;;;8.75;7.50;;;;;;;;5097633;27;45603;-69
2022/03/30 07:10:23;;;;;;;;;10.00;9.25;;;;;;;;5093059;27;46818;-71
2022/03/30 07:12:50;;;;;;;;;11.50;7.00;;;;;;;;5086099;27;45525;-70
2022/03/30 07:15:16;;;;;;;;;11.00;10.00;;;;;;;;5096777;27;45473;-70
2022/03/30 07:17:45;;;;;;;;;9.00;8.25;;;;;;;;5098222;27;45355;-71
2022/03/30 07:20:11;;;;;;;;;9.75;9.00;;;;;;;;5094697;27;45368;-69
2022/03/30 07:22:36;;;;;;;;;10.00;8.25;;;;;;;;5093522;27;45503;-70
2022/03/30 07:25:02;;;;;;;;;7.25;7.25;;;;;;;;5095777;27;45474;-71
2022/03/30 07:27:27;;;;;;;;;9.00;9.00;;;;;;;;5096045;27;47774;-70
2022/03/30 07:29:52;;;;;;;;;10.50;9.50;;;;;;;;5098475;27;45460;-70
2022/03/30 07:32:19;;;;;;;;;10.75;8.25;;;;;;;;5095950;27;45471;-70
2022/03/30 07:34:44;;;;;;;;;7.75;7.75;;;;;;;;5103307;27;45475;-70
2022/03/30 07:37:10;;;;;;;;;9.00;9.00;;;;;;;;5109656;27;45451;-70
2022/03/30 07:39:35;;;;;;;;;7.00;7.00;;;;;;;;5097394;27;45467;-70
2022/03/30 07:42:00;;;;;;;;;10.00;10.00;;;;;;;;5098245;27;45945;-70
2022/03/30 07:44:26;;;;;;;;;10.50;9.50;;;;;;;;5097230;27;45510;-70
2022/03/30 07:46:51;;;;;;;;;8.25;8.00;;;;;;;;5096440;27;46048;-70
2022/03/30 07:49:17;;;;;;;;;7.50;7.50;;;;;;;;5075013;27;46256;-70
2022/03/30 07:51:42;;;;;;;;;10.00;9.00;;;;;;;;5096155;27;45498;-70
2022/03/30 07:54:08;;;;;;;;;10.00;9.25;;;;;;;;5093079;27;45267;-70
2022/03/30 07:56:34;;;;;;;;;9.75;9.25;;;;;;;;5095725;27;45964;-70
2022/03/30 07:59:00;;;;;;;;;12.50;10.50;;;;;;;;5091686;27;45437;-70
2022/03/30 08:01:25;;;;;;;;;8.00;7.00;;;;;;;;5096320;27;45370;-70
2022/03/30 08:03:50;;;;;;;;;12.00;9.00;;;;;;;;5093650;27;48414;-70
2022/03/30 08:06:16;;;;;;;;;8.50;8.25;;;;;;;;5095866;27;46495;-70
2022/03/30 08:08:42;;;;;;;;;7.25;6.25;;;;;;;;5080206;27;45375;-70
2022/03/30 08:11:07;;;;;;;;;9.75;7.75;;;;;;;;5095674;27;45423;-70
2022/03/30 08:13:32;;;;;;;;;11.00;9.50;;;;;;;;5095870;27;45425;-71
2022/03/30 08:15:57;;;;;;;;;6.75;6.75;;;;;;;;5093810;27;45453;-70
2022/03/30 08:18:23;;;;;;;;;8.00;8.00;;;;;;;;5095229;27;45692;-70
2022/03/30 08:23:35;;;;;;;;;7.75;7.75;;;;;;;;5097026;27;45421;-70
2022/03/30 08:26:00;;;;;;;;;8.25;8.25;;;;;;;;5090343;27;46364;-70
2022/03/30 08:28:26;;;;;;;;;11.50;11.00;;;;;;;;5092830;27;45356;-70
2022/03/30 08:30:52;;;;;;;;;9.75;8.00;;;;;;;;5094241;27;45574;-70
2022/03/30 08:33:23;;;;;;;;;8.75;7.75;;;;;;;;5095296;27;45585;-70
2022/03/30 08:35:50;;;;;;;;;11.25;11.25;;;;;;;;5097613;27;46187;-70
2022/03/30 08:38:15;;;;;;;;;8.00;8.00;;;;;;;;5095876;27;45541;-70
2022/03/30 08:40:40;;;;;;;;;11.00;11.00;;;;;;;;5096560;27;45478;-70
2022/03/30 08:43:06;;;;;;;;;10.50;10.50;;;;;;;;5095535;27;45382;-71
2022/03/30 08:45:31;;;;;;;;;8.75;8.75;;;;;;;;5093859;27;46475;-70
2022/03/30 08:47:56;;;;;;;;;11.25;8.25;;;;;;;;5097724;27;45440;-70
2022/03/30 08:50:22;;;;;;;;;7.00;7.00;;;;;;;;5095412;27;47305;-70
2022/03/30 08:52:49;;;;;;;;;10.50;8.75;;;;;;;;5093863;27;45472;-70
2022/03/30 08:55:15;;;;;;;;;11.50;9.25;;;;;;;;5092925;27;46436;-70
2022/03/30 08:57:40;;;;;;;;;8.50;7.50;;;;;;;;5093517;27;45370;-71
2022/03/30 09:00:16;;;;;;;;;11.50;10.25;;;;;;;;5096175;27;45366;-71
2022/03/30 09:02:42;;;;;;;;;8.25;8.00;;;;;;;;5096072;27;45526;-70
2022/03/30 09:05:13;;;;;;;;;11.50;9.00;;;;;;;;5093276;27;47245;-70
2022/03/30 09:07:38;;;;;;;;;10.75;9.00;;;;;;;;5094923;27;45315;-70
2022/03/30 09:10:03;;;;;;;;;9.00;8.75;;;;;;;;5094350;27;45462;-70
2022/03/30 09:12:29;;;;;;;;;8.50;8.50;;;;;;;;5095620;27;45430;-70
2022/03/30 09:15:04;;;;;;;;;11.75;9.75;;;;;;;;5096670;27;46939;-70
2022/03/30 09:17:36;;;;;;;;;7.50;7.50;;;;;;;;5095856;27;45502;-70
2022/03/30 09:20:03;;;;;;;;;8.50;8.50;;;;;;;;5094222;27;45478;-70
2022/03/30 09:22:28;;;;;;;;;9.75;9.75;;;;;;;;5095080;27;45380;-71
2022/03/30 09:24:54;;;;;;;;;3.75;3.75;;;;;;;;5094803;27;46506;-70
2022/03/30 09:27:23;;;;;;;;;9.00;9.00;;;;;;;;5095971;27;45498;-70
2022/03/30 09:29:49;;;;;;;;;8.50;8.50;;;;;;;;5097281;27;45323;-70
2022/03/30 09:32:14;;;;;;;;;10.50;10.50;;;;;;;;5094342;27;45422;-71
2022/03/30 09:35:06;;;;;;;;;9.00;9.00;;;;;;;;5094381;27;45530;-70
2022/03/30 09:37:31;;;;;;;;;9.25;7.75;;;;;;;;5095972;27;45488;-70
2022/03/30 09:39:56;;;;;;;;;9.25;9.25;;;;;;;;5104753;27;45336;-70
2022/03/30 09:42:27;;;;;;;;;11.25;11.00;;;;;;;;5094511;27;45735;-70
2022/03/30 09:44:53;;;;;;;;;7.00;7.00;;;;;;;;5096500;27;46752;-70
2022/03/30 09:47:19;;;;;;;;;7.25;7.25;;;;;;;;5094377;27;45276;-70
2022/03/30 09:49:45;;;;;;;;;7.75;7.75;;;;;;;;5089021;27;45474;-70
2022/03/30 09:52:10;;;;;;;;;11.25;9.75;;;;;;;;5093437;27;45401;-70
2022/03/30 09:54:43;;;;;;;;;10.75;10.75;;;;;;;;5094210;27;45661;-71
2022/03/30 09:57:14;;;;;;;;;8.00;8.00;;;;;;;;5094933;27;45622;-70
2022/03/30 10:00:05;;;;;;;;;10.50;10.50;;;;;;;;5094623;27;45348;-70
2022/03/30 10:02:32;;;;;;;;;9.25;8.75;;;;;;;;5032184;28;45585;-70
2022/03/30 10:04:57;;;;;;;;;8.75;8.75;;;;;;;;5029366;28;45435;-70
2022/03/30 10:07:23;;;;;;;;;11.00;11.00;;;;;;;;5031823;28;45301;-70
2022/03/30 10:09:49;;;;;;;;;10.50;9.75;;;;;;;;5025685;28;45336;-70
2022/03/30 10:12:17;;;;;;;;;7.25;7.25;;;;;;;;5032028;28;45443;-71
2022/03/30 10:14:45;;;;;;;;;9.75;9.50;;;;;;;;5032936;28;46493;-71
2022/03/30 10:17:10;;;;;;;;;10.50;9.25;;;;;;;;5031845;28;45678;-70
2022/03/30 10:19:35;;;;;;;;;9.50;9.50;;;;;;;;5031030;28;45355;-70
2022/03/30 10:22:05;;;;;;;;;12.50;10.50;;;;;;;;5030035;28;45499;-71
2022/03/30 10:24:34;;;;;;;;;11.75;9.50;;;;;;;;5031729;28;45695;-70
2022/03/30 10:27:04;;;;;;;;;9.75;9.75;;;;;;;;5032655;28;45420;-70
2022/03/30 10:29:30;;;;;;;;;8.25;7.75;;;;;;;;5032220;28;45424;-70
2022/03/30 10:32:13;;;;;;;;;11.75;10.75;;;;;;;;5027842;28;45286;-70
2022/03/30 10:34:50;;;;;;;;;10.75;9.00;;;;;;;;5025364;28;46161;-70
2022/03/30 10:37:22;;;;;;;;;8.25;8.25;;;;;;;;5032037;28;45396;-70
2022/03/30 10:39:53;;;;;;;;;9.00;9.00;;;;;;;;5053331;28;45445;-70
2022/03/30 10:42:19;;;;;;;;;9.25;7.50;;;;;;;;5072418;28;45296;-71
2022/03/30 10:44:49;;;;;;;;;12.75;11.00;;;;;;;;5073988;28;45307;-70
2022/03/30 10:47:14;;;;;;;;;10.75;9.00;;;;;;;;5071387;28;45494;-70
2022/03/30 10:49:44;;;;;;;;;10.00;8.75;;;;;;;;5071207;28;45523;-70
2022/03/30 10:52:32;;;;;;;;;9.75;9.00;;;;;;;;5055914;28;45281;-69
2022/03/30 10:55:12;;;;;;;;;10.25;10.25;;;;;;;;5071962;28;45527;-70
2022/03/30 10:57:44;;;;;;;;;11.50;9.00;;;;;;;;5058575;28;45388;-70
2022/03/30 11:00:16;;;;;;;;;13.25;10.00;;;;;;;;5072612;27;45313;-71
2022/03/30 11:02:41;;;;;;;;;14.00;11.25;;;;;;;;5073214;28;45492;-71
2022/03/30 11:05:10;;;;;;;;;11.00;11.00;;;;;;;;5071692;28;47323;-69
2022/03/30 11:07:36;;;;;;;;;11.00;10.00;;;;;;;;5073535;28;45478;-72
2022/03/30 11:10:15;;;;;;;;;12.25;9.25;;;;;;;;5079644;27;45452;-71
2022/03/30 11:13:00;;;;;;;;;11.00;9.00;;;;;;;;5091532;27;45514;-71
2022/03/30 11:15:25;;;;;;;;;12.50;10.75;;;;;;;;5074944;27;46382;-71
2022/03/30 11:17:50;;;;;;;;;11.00;9.50;;;;;;;;5095121;27;45380;-71
2022/03/30 11:20:16;;;;;;;;;10.00;10.00;;;;;;;;5090909;27;45446;-71
2022/03/30 11:22:44;;;;;;;;;9.25;9.00;;;;;;;;5091050;27;45505;-72
2022/03/30 11:25:09;;;;;;;;;9.75;9.75;;;;;;;;5090688;27;46378;-71
2022/03/30 11:27:34;;;;;;;;;12.75;10.50;;;;;;;;5091320;27;45557;-71
2022/03/30 11:30:18;;;;;;;;;14.00;10.75;;;;;;;;5094161;27;45327;-72
2022/03/30 11:32:54;;;;;;;;;10.00;8.25;;;;;;;;5094178;27;45444;-71
2022/03/30 11:35:20;;;;;;;;;10.00;9.75;;;;;;;;5088786;27;46597;-71
2022/03/30 11:37:47;;;;;;;;;12.00;11.75;;;;;;;;5086046;27;45371;-71
2022/03/30 11:40:12;;;;;;;;;11.75;10.25;;;;;;;;5096661;27;45585;-71
2022/03/30 11:42:40;;;;;;;;;11.25;9.00;;;;;;;;5094585;27;45697;-70
2022/03/30 11:45:21;;;;;;;;;9.75;9.75;;;;;;;;5097255;27;45604;-70
2022/03/30 11:47:46;;;;;;;;;10.75;10.50;;;;;;;;5094830;27;45374;-68
2022/03/30 11:50:12;;;;;;;;;14.75;11.50;;;;;;;;5092899;27;45482;-68
2022/03/30 11:52:38;;;;;;;;;13.25;10.25;;;;;;;;5096313;27;45564;-68
2022/03/30 11:55:04;;;;;;;;;8.50;7.50;;;;;;;;5095598;27;45632;-68
2022/03/30 11:57:29;;;;;;;;;12.00;11.50;;;;;;;;5096883;27;45747;-68
2022/03/30 12:00:00;;;;;;;;;12.75;12.00;;;;;;;;5098399;27;45353;-68
2022/03/30 12:02:26;;;;;;;;;11.00;11.00;;;;;;;;5097309;27;45427;-67
2022/03/30 12:04:52;;;;;;;;;12.50;9.25;;;;;;;;5095890;27;47344;-68
2022/03/30 12:07:19;;;;;;;;;11.75;10.25;;;;;;;;5097065;27;45489;-68
2022/03/30 12:09:53;;;;;;;;;9.50;9.50;;;;;;;;5095666;27;45315;-68
2022/03/30 12:12:35;;;;;;;;;9.50;9.50;;;;;;;;5095391;27;45553;-68
2022/03/30 12:15:02;;;;;;;;;13.25;11.25;;;;;;;;5093649;27;46466;-68
2022/03/30 12:17:28;;;;;;;;;13.50;12.00;;;;;;;;5097921;27;45417;-68
2022/03/30 12:19:53;;;;;;;;;15.50;11.75;;;;;;;;5094352;27;45280;-68
2022/03/30 12:22:19;;;;;;;;;9.75;9.75;;;;;;;;5093979;27;45550;-68
2022/03/30 12:24:45;;;;;;;;;12.50;12.50;;;;;;;;5095406;27;45321;-68
2022/03/30 12:27:11;;;;;;;;;10.75;10.75;;;;;;;;5095883;27;45334;-68
2022/03/30 12:29:37;;;;;;;;;15.00;13.00;;;;;;;;5097842;27;45421;-68
2022/03/30 12:32:03;;;;;;;;;10.25;10.25;;;;;;;;5095665;27;45460;-68
2022/03/30 12:34:31;;;;;;;;;12.75;11.00;;;;;;;;5094110;27;45480;-68
2022/03/30 12:36:58;;;;;;;;;12.00;11.00;;;;;;;;5095508;27;45477;-68
2022/03/30 12:39:27;;;;;;;;;10.25;9.75;;;;;;;;5093671;27;45375;-68
2022/03/30 12:42:00;;;;;;;;;11.25;11.00;;;;;;;;5097141;27;45286;-68
2022/03/30 12:44:29;;;;;;;;;14.00;10.50;;;;;;;;5094160;27;46174;-68
2022/03/30 12:46:55;;;;;;;;;13.75;12.25;;;;;;;;5093513;27;45454;-68
2022/03/30 12:49:30;;;;;;;;;12.50;11.25;;;;;;;;5094628;27;45512;-68
2022/03/30 12:52:03;;;;;;;;;11.50;11.00;;;;;;;;5095176;27;45439;-68
2022/03/30 12:54:28;;;;;;;;;13.50;10.25;;;;;;;;5081552;27;45400;-68
2022/03/30 12:56:53;;;;;;;;;12.25;11.75;;;;;;;;5070955;28;45456;-68
2022/03/30 12:59:19;;;;;;;;;14.25;12.75;;;;;;;;5093605;27;45310;-69
2022/03/30 13:01:49;;;;;;;;;15.50;11.75;;;;;;;;5095120;27;45612;-69
2022/03/30 13:04:18;;;;;;;;;9.75;9.50;;;;;;;;5094977;27;46214;-68
2022/03/30 13:07:02;;;;;;;;;10.25;10.25;;;;;;;;5086621;27;45350;-69
2022/03/30 13:09:28;;;;;;;;;12.00;11.75;;;;;;;;5087126;27;45525;-68
2022/03/30 13:11:54;;;;;;;;;12.50;12.50;;;;;;;;5097107;27;45492;-68
2022/03/30 13:14:19;;;;;;;;;11.25;9.25;;;;;;;;5094500;27;45366;-69
2022/03/30 13:16:57;;;;;;;;;11.50;10.50;;;;;;;;5093404;27;45506;-69
2022/03/30 13:19:27;;;;;;;;;11.50;11.50;;;;;;;;5093310;27;45316;-68
2022/03/30 13:21:53;;;;;;;;;11.00;11.00;;;;;;;;5089334;27;45554;-68
2022/03/30 13:24:23;;;;;;;;;11.75;9.25;;;;;;;;5093790;27;45464;-68
2022/03/30 13:26:53;;;;;;;;;13.00;12.00;;;;;;;;5096490;27;45387;-68
2022/03/30 13:29:18;;;;;;;;;14.50;12.25;;;;;;;;5093761;27;45356;-68
2022/03/30 13:31:46;;;;;;;;;9.75;9.75;;;;;;;;5095711;27;45480;-68
2022/03/30 13:34:11;;;;;;;;;12.50;12.00;;;;;;;;5098855;27;47041;-68
2022/03/30 13:36:38;;;;;;;;;15.25;12.00;;;;;;;;5093266;27;45412;-68
2022/03/30 13:39:03;;;;;;;;;9.25;8.50;;;;;;;;5095938;27;45453;-68
2022/03/30 13:41:29;;;;;;;;;12.25;11.00;;;;;;;;5095028;27;45558;-68
2022/03/30 13:43:55;;;;;;;;;11.00;10.25;;;;;;;;5094485;27;46122;-68
2022/03/30 13:46:21;;;;;;;;;13.00;12.00;;;;;;;;5092667;27;45434;-68
2022/03/30 13:48:46;;;;;;;;;14.25;12.25;;;;;;;;5094547;27;45350;-68
2022/03/30 13:51:12;;;;;;;;;11.00;11.00;;;;;;;;5094578;27;45360;-68
2022/03/30 13:53:37;;;;;;;;;12.75;11.25;;;;;;;;5095152;27;47215;-68
2022/03/30 13:56:03;;;;;;;;;10.25;10.25;;;;;;;;5093970;27;45399;-68
2022/03/30 13:58:30;;;;;;;;;16.00;14.00;;;;;;;;5094187;27;45515;-68
2022/03/30 14:00:56;;;;;;;;;9.00;9.00;;;;;;;;5091598;27;45468;-68
2022/03/30 14:03:21;;;;;;;;;14.00;12.50;;;;;;;;5093971;27;47019;-68
2022/03/30 14:05:46;;;;;;;;;11.75;10.00;;;;;;;;5092446;27;45365;-68
2022/03/30 14:08:11;;;;;;;;;12.00;12.00;;;;;;;;5089607;27;45473;-68
2022/03/30 14:10:37;;;;;;;;;12.00;11.25;;;;;;;;5095074;27;45544;-68
2022/03/30 14:13:02;;;;;;;;;13.25;12.00;;;;;;;;5072843;27;47597;-69
2022/03/30 14:15:28;;;;;;;;;16.00;11.00;;;;;;;;5094982;27;45315;-69
2022/03/30 14:17:53;;;;;;;;;12.25;11.25;;;;;;;;5096182;27;45482;-69
2022/03/30 14:20:19;;;;;;;;;10.00;10.00;;;;;;;;5093967;27;45573;-68
2022/03/30 14:22:45;;;;;;;;;11.50;11.25;;;;;;;;5091727;27;46112;-69
2022/03/30 14:25:11;;;;;;;;;14.75;13.00;;;;;;;;5093593;27;45383;-68
2022/03/30 14:27:37;;;;;;;;;10.50;10.25;;;;;;;;5094013;27;45464;-68
2022/03/30 14:30:02;;;;;;;;;13.25;12.75;;;;;;;;5095530;27;45444;-69
2022/03/30 14:32:28;;;;;;;;;13.50;13.50;;;;;;;;5094526;27;45408;-68
2022/03/30 14:34:54;;;;;;;;;13.50;13.50;;;;;;;;5091437;27;45708;-68
2022/03/30 14:37:20;;;;;;;;;13.00;13.00;;;;;;;;5091691;27;45623;-68